createdAt,value
2023-10-30T00:00:55.824Z,99647.88
2023-10-30T00:03:24.218Z,99644.06
2023-10-30T00:05:52.483Z,99645.72
2023-10-30T00:08:21.476Z,99644.31
2023-10-30T00:10:49.664Z,99641.69
2023-10-30T00:13:17.976Z,99636.66
2023-10-30T00:15:46.143Z,99642.63
2023-10-30T00:18:15.748Z,99642.75
2023-10-30T00:20:44.042Z,99646.94
2023-10-30T00:23:12.221Z,99663.00
2023-10-30T00:25:40.554Z,99661.47
2023-10-30T00:28:08.596Z,99665.28
2023-10-30T00:30:36.837Z,99663.72
2023-10-30T00:33:05.200Z,99667.78
2023-10-30T00:35:34.782Z,99674.91
2023-10-30T00:38:02.903Z,99682.78
2023-10-30T00:40:31.046Z,99672.66
2023-10-30T00:42:59.090Z,99686.03
2023-10-30T00:45:27.258Z,99681.50
2023-10-30T00:47:55.678Z,99685.66
2023-10-30T00:50:23.896Z,99681.50
2023-10-30T00:52:53.577Z,99686.16
2023-10-30T00:55:22.503Z,99676.72
2023-10-30T00:57:50.521Z,99684.84
2023-10-30T01:00:19.440Z,99695.34
2023-10-30T01:02:47.698Z,99698.31
2023-10-30T01:05:16.731Z,99697.47
2023-10-30T01:07:45.636Z,99710.59
2023-10-30T01:10:15.084Z,99715.34
2023-10-30T01:12:46.051Z,99720.16
2023-10-30T01:15:18.412Z,99719.03
2023-10-30T01:17:46.690Z,99732.06
2023-10-30T01:20:15.229Z,99731.47
2023-10-30T01:22:43.303Z,99726.34
2023-10-30T01:25:11.449Z,99731.69
2023-10-30T01:27:41.101Z,99732.31
2023-10-30T01:30:10.173Z,99737.56
2023-10-30T01:32:38.255Z,99722.88
2023-10-30T01:35:06.895Z,99738.00
2023-10-30T01:37:34.964Z,99741.72
2023-10-30T01:40:03.530Z,99740.88
2023-10-30T01:42:31.679Z,99745.19
2023-10-30T01:45:01.568Z,99748.88
2023-10-30T01:47:30.147Z,99744.69
2023-10-30T01:50:04.030Z,99745.53
2023-10-30T01:52:33.301Z,99737.31
2023-10-30T01:55:01.419Z,99744.84
2023-10-30T01:57:30.834Z,99743.84
2023-10-30T02:00:01.780Z,99734.44
2023-10-30T02:02:32.162Z,99732.16
2023-10-30T02:05:00.475Z,99735.75
2023-10-30T02:07:28.606Z,99738.38
2023-10-30T02:09:56.961Z,99733.47
2023-10-30T02:12:27.980Z,99729.16
2023-10-30T02:14:56.787Z,99733.38
2023-10-30T02:17:28.909Z,99746.59
2023-10-30T02:19:57.240Z,99751.13
2023-10-30T02:22:25.290Z,99747.78
2023-10-30T02:24:53.351Z,99737.19
2023-10-30T02:27:22.828Z,99741.72
2023-10-30T02:29:51.022Z,99741.72
2023-10-30T02:32:19.238Z,99733.81
2023-10-30T02:34:47.249Z,99745.66
2023-10-30T02:37:15.532Z,99746.84
2023-10-30T02:39:43.624Z,99753.16
2023-10-30T02:42:11.932Z,99746.72
2023-10-30T02:44:41.434Z,99740.63
2023-10-30T02:47:09.486Z,99743.13
2023-10-30T02:49:37.916Z,99744.69
2023-10-30T02:52:06.283Z,99749.34
2023-10-30T02:54:34.691Z,99748.03
2023-10-30T02:57:03.020Z,99762.09
2023-10-30T02:59:31.373Z,99758.41
2023-10-30T03:02:01.186Z,99745.06
2023-10-30T03:04:29.398Z,99749.47
2023-10-30T03:06:59.729Z,99745.28
2023-10-30T03:09:28.170Z,99748.25
2023-10-30T03:11:56.706Z,99748.50
2023-10-30T03:14:25.125Z,99747.69
2023-10-30T03:16:54.623Z,99753.03
2023-10-30T03:19:27.338Z,99746.47
2023-10-30T03:21:55.464Z,99754.34
2023-10-30T03:24:26.416Z,99758.06
2023-10-30T03:26:54.531Z,99762.09
2023-10-30T03:29:25.824Z,99767.72
2023-10-30T03:31:55.973Z,99768.78
2023-10-30T03:34:24.415Z,99773.09
2023-10-30T03:36:53.888Z,99778.34
2023-10-30T03:39:22.184Z,99771.66
2023-10-30T03:41:52.818Z,99779.88
2023-10-30T03:44:24.866Z,99779.31
2023-10-30T03:46:52.943Z,99783.81
2023-10-30T03:49:23.388Z,99784.78
2023-10-30T03:51:51.865Z,99788.69
2023-10-30T03:54:24.213Z,99786.94
2023-10-30T03:56:52.319Z,99780.94
2023-10-30T03:59:21.493Z,99780.00
2023-10-30T04:01:49.613Z,99784.75
2023-10-30T04:04:17.834Z,99778.56
2023-10-30T04:06:48.315Z,99773.69
2023-10-30T04:09:16.516Z,99775.69
2023-10-30T04:11:49.159Z,99771.50
2023-10-30T04:14:16.412Z,99787.38
2023-10-30T04:16:45.832Z,99786.63
2023-10-30T04:19:13.901Z,99779.25
2023-10-30T04:21:42.046Z,99788.78
2023-10-30T04:24:11.114Z,99781.38
2023-10-30T04:26:41.256Z,99774.06
2023-10-30T04:29:13.643Z,99775.50
2023-10-30T04:31:41.769Z,99769.66
2023-10-30T04:34:09.832Z,99772.00
2023-10-30T04:36:37.906Z,99774.25
2023-10-30T04:39:10.082Z,99771.25
2023-10-30T04:41:38.172Z,99773.38
2023-10-30T04:44:06.653Z,99779.06
2023-10-30T04:46:36.190Z,99770.69
2023-10-30T04:49:07.048Z,99769.25
2023-10-30T04:51:36.619Z,99773.41
2023-10-30T04:54:04.839Z,99770.19
2023-10-30T04:56:32.990Z,99776.59
2023-10-30T04:59:01.264Z,99774.41
2023-10-30T05:01:29.346Z,99772.00
2023-10-30T05:03:59.495Z,99786.91
2023-10-30T05:06:27.707Z,99780.09
2023-10-30T05:08:55.785Z,99782.72
2023-10-30T05:11:23.915Z,99775.06
2023-10-30T05:13:52.002Z,99773.53
2023-10-30T05:16:22.768Z,99775.06
2023-10-30T05:18:51.023Z,99772.44
2023-10-30T05:21:20.463Z,99775.81
2023-10-30T05:23:49.919Z,99770.06
2023-10-30T05:26:18.113Z,99769.13
2023-10-30T05:28:46.348Z,99767.22
2023-10-30T05:31:14.668Z,99763.88
2023-10-30T05:33:43.022Z,99762.72
2023-10-30T05:36:11.736Z,99774.13
2023-10-30T05:38:41.170Z,99767.00
2023-10-30T05:41:09.239Z,99772.00
2023-10-30T05:43:37.397Z,99765.84
2023-10-30T05:46:05.932Z,99764.28
2023-10-30T05:48:34.448Z,99765.22
2023-10-30T05:51:03.035Z,99767.00
2023-10-30T05:53:31.144Z,99761.88
2023-10-30T05:56:01.057Z,99757.69
2023-10-30T05:58:29.419Z,99763.53
2023-10-30T06:00:57.557Z,99771.19
2023-10-30T06:03:26.344Z,99758.91
2023-10-30T06:05:54.987Z,99768.22
2023-10-30T06:08:25.112Z,99779.13
2023-10-30T06:10:53.412Z,99779.38
2023-10-30T06:13:22.856Z,99790.28
2023-10-30T06:15:51.109Z,99795.97
2023-10-30T06:18:19.316Z,99800.78
2023-10-30T06:20:47.459Z,99797.88
2023-10-30T06:23:15.640Z,99803.22
2023-10-30T06:25:45.708Z,99797.59
2023-10-30T06:28:16.321Z,99799.56
2023-10-30T06:30:45.824Z,99806.72
2023-10-30T06:33:13.910Z,99798.84
2023-10-30T06:35:42.092Z,99805.13
2023-10-30T06:38:12.944Z,99803.56
2023-10-30T06:40:41.033Z,99809.66
2023-10-30T06:43:09.107Z,99809.03
2023-10-30T06:45:37.198Z,99811.53
2023-10-30T06:48:07.549Z,99808.91
2023-10-30T06:50:35.739Z,99808.19
2023-10-30T06:53:06.289Z,99818.75
2023-10-30T06:55:36.476Z,99823.34
2023-10-30T06:58:04.603Z,99826.19
2023-10-30T07:00:33.257Z,99826.31
2023-10-30T07:03:01.546Z,99840.63
2023-10-30T07:05:31.153Z,99836.22
2023-10-30T07:07:59.288Z,99838.94
2023-10-30T07:10:27.366Z,99841.22
2023-10-30T07:12:58.115Z,99840.59
2023-10-30T07:15:28.236Z,99842.97
2023-10-30T07:17:56.889Z,99838.53
2023-10-30T07:20:25.334Z,99849.28
2023-10-30T07:22:54.759Z,99851.88
2023-10-30T07:25:23.006Z,99854.22
2023-10-30T07:27:51.161Z,99849.78
2023-10-30T07:30:37.096Z,99858.38
2023-10-30T07:33:07.715Z,99869.06
2023-10-30T07:35:37.329Z,99855.97
2023-10-30T07:38:06.861Z,99844.41
2023-10-30T07:40:34.855Z,99842.03
2023-10-30T07:43:04.463Z,99852.94
2023-10-30T07:45:32.839Z,99863.81
2023-10-30T07:48:00.986Z,99885.06
2023-10-30T07:50:29.162Z,99873.09
2023-10-30T07:52:57.307Z,99872.41
2023-10-30T07:55:26.861Z,99875.03
2023-10-30T07:57:55.023Z,99880.72
2023-10-30T08:00:23.531Z,99880.94
2023-10-30T08:02:54.284Z,99879.13
2023-10-30T08:05:24.240Z,99884.91
2023-10-30T08:07:52.577Z,99885.00
2023-10-30T08:10:21.010Z,99884.72
2023-10-30T08:12:50.570Z,99887.31
2023-10-30T08:15:18.879Z,99888.00
2023-10-30T08:17:47.012Z,99887.75
2023-10-30T08:20:17.173Z,99897.03
2023-10-30T08:22:45.790Z,99901.56
2023-10-30T08:25:13.949Z,99885.41
2023-10-30T08:27:42.107Z,99894.31
2023-10-30T08:30:12.696Z,99893.00
2023-10-30T08:32:42.684Z,99896.84
2023-10-30T08:35:11.098Z,99882.91
2023-10-30T08:37:39.214Z,99877.47
2023-10-30T08:40:09.645Z,99875.00
2023-10-30T08:42:37.796Z,99873.66
2023-10-30T08:45:09.961Z,99863.69
2023-10-30T08:47:40.461Z,99863.28
2023-10-30T08:50:09.810Z,99860.50
2023-10-30T08:52:38.893Z,99876.59
2023-10-30T08:55:07.645Z,99889.91
2023-10-30T08:57:35.917Z,99894.22
2023-10-30T09:00:07.347Z,99892.25
2023-10-30T09:02:35.599Z,99887.25
2023-10-30T09:05:07.116Z,99892.25
2023-10-30T09:07:35.382Z,99884.63
2023-10-30T09:10:04.281Z,99890.72
2023-10-30T09:12:32.486Z,99894.00
2023-10-30T09:15:00.673Z,99889.00
2023-10-30T09:17:28.777Z,99891.25
2023-10-30T09:19:56.849Z,99878.50
2023-10-30T09:22:27.096Z,99888.38
2023-10-30T09:24:55.218Z,99880.31
2023-10-30T09:27:24.849Z,99876.06
2023-10-30T09:29:53.047Z,99876.06
2023-10-30T09:32:21.135Z,99889.94
2023-10-30T09:34:49.260Z,99893.00
2023-10-30T09:37:17.865Z,99901.38
2023-10-30T09:39:48.679Z,99905.56
2023-10-30T09:42:17.321Z,99898.34
2023-10-30T09:44:47.299Z,99899.88
2023-10-30T09:47:20.643Z,99900.03
2023-10-30T09:49:51.003Z,99903.50
2023-10-30T09:52:22.333Z,99895.13
2023-10-30T09:54:52.954Z,99890.28
2023-10-30T09:57:21.202Z,99877.25
2023-10-30T09:59:55.161Z,99885.28
2023-10-30T10:02:26.764Z,99884.72
2023-10-30T10:04:54.944Z,99869.75
2023-10-30T10:07:23.782Z,99876.41
2023-10-30T10:10:03.656Z,99874.59
2023-10-30T10:12:32.339Z,99879.84
2023-10-30T10:15:00.612Z,99881.81
2023-10-30T10:17:28.710Z,99884.16
2023-10-30T10:19:56.901Z,99881.53
2023-10-30T10:22:32.856Z,99876.53
2023-10-30T10:25:03.757Z,99875.72
2023-10-30T10:27:32.028Z,99883.91
2023-10-30T10:30:00.388Z,99876.66
2023-10-30T10:32:30.486Z,99871.38
2023-10-30T10:34:59.897Z,99867.47
2023-10-30T10:37:27.967Z,99864.00
2023-10-30T10:39:56.979Z,99863.16
2023-10-30T10:42:29.292Z,99857.06
2023-10-30T10:44:59.342Z,99855.53
2023-10-30T10:47:27.570Z,99846.63
2023-10-30T10:49:55.647Z,99856.09
2023-10-30T10:52:26.521Z,99860.09
2023-10-30T10:55:04.697Z,99860.25
2023-10-30T10:57:43.540Z,99858.28
2023-10-30T11:00:16.689Z,99843.81
2023-10-30T11:02:49.739Z,99847.00
2023-10-30T11:05:19.099Z,99836.84
2023-10-30T11:07:55.633Z,99836.56
2023-10-30T11:10:31.418Z,99837.97
2023-10-30T11:13:14.211Z,99836.56
2023-10-30T11:15:49.572Z,99838.47
2023-10-30T11:18:20.344Z,99829.94
2023-10-30T11:21:10.195Z,99823.25
2023-10-30T11:23:56.480Z,99816.25
2023-10-30T11:26:40.914Z,99813.97
2023-10-30T11:29:13.057Z,99802.84
2023-10-30T11:31:55.066Z,99807.44
2023-10-30T11:34:27.686Z,99805.19
2023-10-30T11:37:01.066Z,99804.19
2023-10-30T11:39:29.349Z,99809.56
2023-10-30T11:41:57.530Z,99802.34
2023-10-30T11:44:31.277Z,99795.69
2023-10-30T11:47:00.368Z,99790.97
2023-10-30T11:49:33.796Z,99787.66
2023-10-30T11:52:02.188Z,99785.78
2023-10-30T11:54:34.678Z,99783.19
2023-10-30T11:57:03.198Z,99783.19
2023-10-30T11:59:32.791Z,99776.63
2023-10-30T12:02:02.447Z,99776.25
2023-10-30T12:04:33.851Z,99778.38
2023-10-30T12:07:02.614Z,99771.56
2023-10-30T12:09:30.976Z,99767.25
2023-10-30T12:11:59.128Z,99764.47
2023-10-30T12:14:28.303Z,99760.75
2023-10-30T12:16:57.952Z,99758.25
2023-10-30T12:19:26.113Z,99754.09
2023-10-30T12:21:54.738Z,99762.69
2023-10-30T12:24:26.712Z,99758.38
2023-10-30T12:26:55.047Z,99757.72
2023-10-30T12:29:23.796Z,99753.50
2023-10-30T12:32:06.992Z,99745.72
2023-10-30T12:34:39.467Z,99741.25
2023-10-30T12:37:25.350Z,99737.31
2023-10-30T12:40:03.537Z,99727.75
2023-10-30T12:42:31.831Z,99721.63
2023-10-30T12:44:59.973Z,99716.47
2023-10-30T12:47:29.544Z,99714.69
2023-10-30T12:49:57.674Z,99705.91
2023-10-30T12:52:26.319Z,99699.97
2023-10-30T12:54:54.453Z,99699.56
2023-10-30T12:57:23.735Z,99696.78
2023-10-30T12:59:51.777Z,99688.31
2023-10-30T13:02:20.891Z,99698.22
2023-10-30T13:04:51.118Z,99698.50
2023-10-30T13:07:19.890Z,99695.41
2023-10-30T13:09:48.285Z,99685.88
2023-10-30T13:12:16.560Z,99680.75
2023-10-30T13:14:44.889Z,99668.16
2023-10-30T13:17:12.985Z,99674.13
2023-10-30T13:19:41.371Z,99667.84
2023-10-30T13:22:10.919Z,99671.03
2023-10-30T13:24:39.223Z,99655.69
2023-10-30T13:27:07.450Z,99651.25
2023-10-30T13:29:35.960Z,99642.16
2023-10-30T13:32:04.220Z,99637.41
2023-10-30T13:34:35.304Z,99638.25
2023-10-30T13:37:03.697Z,99635.97
2023-10-30T13:39:33.315Z,99638.59
2023-10-30T13:42:01.620Z,99634.16
2023-10-30T13:44:29.668Z,99633.16
2023-10-30T13:46:57.981Z,99623.06
2023-10-30T13:49:26.546Z,99623.06
2023-10-30T13:51:54.614Z,99619.94
2023-10-30T13:54:22.741Z,99608.94
2023-10-30T13:56:52.482Z,99602.50
2023-10-30T13:59:20.945Z,99608.13
2023-10-30T14:01:52.260Z,99602.19
2023-10-30T14:04:20.809Z,99608.56
2023-10-30T14:06:49.109Z,99604.41
2023-10-30T14:09:17.405Z,99600.25
2023-10-30T14:11:46.393Z,99599.59
2023-10-30T14:14:15.912Z,99595.97
2023-10-30T14:16:44.106Z,99601.03
2023-10-30T14:19:12.475Z,99598.00
2023-10-30T14:21:43.499Z,99602.44
2023-10-30T14:24:11.840Z,99598.31
2023-10-30T14:26:40.083Z,99593.47
2023-10-30T14:29:08.227Z,99603.38
2023-10-30T14:31:37.683Z,99597.25
2023-10-30T14:34:05.902Z,99599.22
2023-10-30T14:36:34.280Z,99590.09
2023-10-30T14:39:03.092Z,99596.66
2023-10-30T14:41:32.953Z,99597.63
2023-10-30T14:44:01.302Z,99596.28
2023-10-30T14:46:29.446Z,99588.28
2023-10-30T14:49:01.470Z,99588.34
2023-10-30T14:51:32.623Z,99586.44
2023-10-30T14:54:00.804Z,99588.53
2023-10-30T14:56:31.227Z,99583.72
2023-10-30T14:58:59.589Z,99573.97
2023-10-30T15:01:30.625Z,99574.81
2023-10-30T15:03:59.204Z,99572.44
2023-10-30T15:06:32.462Z,99572.88
2023-10-30T15:09:03.794Z,99571.22
2023-10-30T15:11:32.081Z,99568.19
2023-10-30T15:14:00.277Z,99567.34
2023-10-30T15:16:28.462Z,99560.41
2023-10-30T15:18:57.225Z,99555.84
2023-10-30T15:21:25.396Z,99558.06
2023-10-30T15:23:54.859Z,99554.06
2023-10-30T15:26:23.340Z,99543.28
2023-10-30T15:28:51.481Z,99540.38
2023-10-30T15:31:20.444Z,99543.88
2023-10-30T15:33:48.613Z,99543.34
2023-10-30T15:36:16.819Z,99538.94
2023-10-30T15:38:44.923Z,99537.09
2023-10-30T15:41:14.361Z,99534.25
2023-10-30T15:43:42.522Z,99534.38
2023-10-30T15:46:11.510Z,99535.53
2023-10-30T15:48:40.561Z,99527.72
2023-10-30T15:51:09.288Z,99519.97
2023-10-30T15:58:46.920Z,99522.41
2023-10-30T16:01:15.959Z,99516.47
2023-10-30T16:03:47.205Z,99511.75
2023-10-30T16:06:15.563Z,99498.31
2023-10-30T16:13:47.336Z,99495.31
2023-10-30T16:16:16.948Z,99494.09
2023-10-30T16:21:19.405Z,99481.50
2023-10-30T16:23:47.610Z,99480.94
2023-10-30T16:26:15.669Z,99476.63
2023-10-30T16:28:47.645Z,99469.56
2023-10-30T16:31:16.050Z,99472.38
2023-10-30T16:33:45.732Z,99469.88
2023-10-30T16:36:13.928Z,99474.72
2023-10-30T16:38:45.119Z,99464.44
2023-10-30T16:41:16.206Z,99462.94
2023-10-30T16:43:44.421Z,99458.78
2023-10-30T16:46:14.110Z,99454.09
2023-10-30T16:48:44.868Z,99448.53
2023-10-30T16:51:12.937Z,99451.31
2023-10-30T16:53:42.753Z,99454.25
2023-10-30T16:56:11.973Z,99445.63
2023-10-30T16:58:40.702Z,99444.09
2023-10-30T17:01:08.908Z,99448.56
2023-10-30T17:03:38.554Z,99436.50
2023-10-30T17:06:07.501Z,99435.41
2023-10-30T17:08:35.640Z,99436.38
2023-10-30T17:11:03.749Z,99441.78
2023-10-30T17:13:31.908Z,99440.81
2023-10-30T17:15:59.956Z,99438.59
2023-10-30T17:18:29.831Z,99432.91
2023-10-30T17:21:06.000Z,99429.75
2023-10-30T17:23:34.275Z,99441.38
2023-10-30T17:26:05.509Z,99436.13
2023-10-30T17:28:33.876Z,99449.13
2023-10-30T17:31:02.386Z,99442.50
2023-10-30T17:33:32.510Z,99439.56
2023-10-30T17:36:02.579Z,99449.69
2023-10-30T17:38:30.984Z,99447.19
2023-10-30T17:40:59.105Z,99442.19
2023-10-30T17:43:27.451Z,99438.03
2023-10-30T17:45:56.588Z,99438.03
2023-10-30T17:48:24.632Z,99429.34
2023-10-30T17:50:53.089Z,99426.97
2023-10-30T17:53:24.633Z,99427.94
2023-10-30T17:55:52.759Z,99425.03
2023-10-30T17:58:20.852Z,99437.25
2023-10-30T18:00:49.399Z,99430.97
2023-10-30T18:03:17.629Z,99438.47
2023-10-30T18:05:45.711Z,99437.63
2023-10-30T18:08:13.717Z,99431.25
2023-10-30T18:10:43.171Z,99422.41
2023-10-30T18:13:11.268Z,99414.34
2023-10-30T18:15:39.454Z,99416.16
2023-10-30T18:18:07.582Z,99415.22
2023-10-30T18:20:36.516Z,99415.47
2023-10-30T18:23:05.353Z,99410.34
2023-10-30T18:25:33.542Z,99412.97
2023-10-30T18:28:03.484Z,99418.94
2023-10-30T18:30:31.542Z,99423.25
2023-10-30T18:33:00.746Z,99419.75
2023-10-30T18:35:29.200Z,99415.88
2023-10-30T18:37:57.283Z,99410.75
2023-10-30T18:40:27.606Z,99416.72
2023-10-30T18:42:55.746Z,99406.47
2023-10-30T18:45:28.474Z,99406.19
2023-10-30T18:47:56.904Z,99395.53
2023-10-30T18:50:24.867Z,99397.31
2023-10-30T18:52:53.278Z,99384.84
2023-10-30T18:55:21.487Z,99380.41
2023-10-30T18:57:49.552Z,99372.50
2023-10-30T19:00:18.660Z,99365.31
2023-10-30T19:02:48.189Z,99360.84
2023-10-30T19:05:16.465Z,99352.28
2023-10-30T19:07:47.928Z,99354.91
2023-10-30T19:10:16.253Z,99358.22
2023-10-30T19:12:44.506Z,99356.84
2023-10-30T19:15:13.484Z,99352.56
2023-10-30T19:17:41.589Z,99349.66
2023-10-30T19:20:12.859Z,99355.19
2023-10-30T19:22:43.218Z,99357.66
2023-10-30T19:25:11.520Z,99362.53
2023-10-30T19:27:40.511Z,99351.03
2023-10-30T19:30:11.792Z,99351.03
2023-10-30T19:32:40.013Z,99354.34
2023-10-30T19:35:08.769Z,99352.66
2023-10-30T19:37:38.402Z,99350.75
2023-10-30T19:40:08.054Z,99347.81
2023-10-30T19:42:36.140Z,99345.19
2023-10-30T19:45:04.494Z,99345.47
2023-10-30T19:47:33.000Z,99347.25
2023-10-30T19:50:01.105Z,99347.41
2023-10-30T19:52:30.791Z,99344.78
2023-10-30T19:55:01.101Z,99339.50
2023-10-30T19:57:29.883Z,99344.63
2023-10-30T19:59:58.014Z,99347.00
2023-10-30T20:02:26.094Z,99355.84
2023-10-30T20:04:56.691Z,99342.41
2023-10-30T20:07:24.848Z,99351.16
2023-10-30T20:10:00.104Z,99345.72
2023-10-30T20:12:40.682Z,99341.00
2023-10-30T20:15:09.686Z,99343.50
2023-10-30T20:17:37.850Z,99345.72
2023-10-30T20:20:06.934Z,99336.31
2023-10-30T20:22:35.042Z,99331.03
2023-10-30T20:25:03.573Z,99333.69
2023-10-30T20:27:32.611Z,99324.81
2023-10-30T20:30:02.295Z,99320.47
2023-10-30T20:32:30.498Z,99322.44
2023-10-30T20:34:59.092Z,99323.56
2023-10-30T20:37:27.265Z,99320.22
2023-10-30T20:39:55.362Z,99322.84
2023-10-30T20:42:23.494Z,99316.91
2023-10-30T20:44:51.522Z,99312.47
2023-10-30T20:47:20.988Z,99314.28
2023-10-30T20:49:49.336Z,99311.66
2023-10-30T20:52:17.624Z,99311.34
2023-10-30T20:54:45.702Z,99305.25
2023-10-30T20:57:13.865Z,99303.31
2023-10-30T20:59:41.936Z,99306.91
2023-10-30T21:02:10.206Z,99299.44
2023-10-30T21:04:39.967Z,99308.03
2023-10-30T21:07:08.151Z,99303.44
2023-10-30T21:09:37.332Z,99289.59
2023-10-30T21:12:06.425Z,99301.78
2023-10-30T21:14:36.922Z,99290.84
2023-10-30T21:17:05.779Z,99285.41
2023-10-30T21:19:33.880Z,99285.56
2023-10-30T21:22:04.465Z,99280.41
2023-10-30T21:24:32.614Z,99287.34
2023-10-30T21:27:00.674Z,99276.97
2023-10-30T21:29:28.764Z,99268.09
2023-10-30T21:31:57.784Z,99260.06
2023-10-30T21:34:28.454Z,99260.06
2023-10-30T21:36:58.132Z,99263.50
2023-10-30T21:39:27.586Z,99256.59
2023-10-30T21:41:58.649Z,99253.50
2023-10-30T21:44:26.769Z,99258.09
2023-10-30T21:46:54.936Z,99247.78
2023-10-30T21:49:23.103Z,99247.28
2023-10-30T21:51:51.150Z,99244.91
2023-10-30T21:54:19.229Z,99241.31
2023-10-30T21:56:48.682Z,99242.44
2023-10-30T21:59:16.779Z,99232.19
2023-10-30T22:01:45.390Z,99233.03
2023-10-30T22:04:13.682Z,99225.81
2023-10-30T22:06:42.400Z,99230.38
2023-10-30T22:09:10.490Z,99225.97
2023-10-30T22:11:38.560Z,99217.63
2023-10-30T22:14:08.103Z,99217.91
2023-10-30T22:16:36.308Z,99212.66
2023-10-30T22:19:05.677Z,99205.72
2023-10-30T22:21:33.752Z,99194.06
2023-10-30T22:24:06.420Z,99196.84
2023-10-30T22:26:34.740Z,99197.00
2023-10-30T22:29:04.085Z,99193.09
2023-10-30T22:31:33.619Z,99184.50
2023-10-30T22:34:02.562Z,99182.88
2023-10-30T22:36:30.699Z,99186.31
2023-10-30T22:38:58.793Z,99178.56
2023-10-30T22:41:27.145Z,99198.13
2023-10-30T22:43:58.466Z,99190.22
2023-10-30T22:46:32.479Z,99180.50
2023-10-30T22:49:02.193Z,99176.75
2023-10-30T22:51:31.200Z,99183.84
2023-10-30T22:53:59.299Z,99182.97
2023-10-30T22:56:27.726Z,99175.78
2023-10-30T22:58:55.893Z,99185.19
2023-10-30T23:01:23.963Z,99186.31
2023-10-30T23:03:52.081Z,99181.03
2023-10-30T23:06:21.687Z,99184.66
2023-10-30T23:08:49.851Z,99173.16
2023-10-30T23:11:17.969Z,99179.22
2023-10-30T23:13:46.354Z,99178.41
2023-10-30T23:16:14.437Z,99176.75
2023-10-30T23:18:42.850Z,99192.69
2023-10-30T23:21:11.019Z,99184.94
2023-10-30T23:23:40.993Z,99182.47
2023-10-30T23:26:09.096Z,99187.44
2023-10-30T23:28:37.268Z,99183.97
2023-10-30T23:31:05.782Z,99178.88
2023-10-30T23:33:33.849Z,99181.63
2023-10-30T23:36:02.015Z,99180.81
2023-10-30T23:38:32.364Z,99194.44
2023-10-30T23:41:02.212Z,99208.56
2023-10-30T23:43:30.482Z,99222.69
2023-10-30T23:45:58.585Z,99231.34
2023-10-30T23:48:26.888Z,99251.84
2023-10-30T23:50:55.013Z,99260.16
2023-10-30T23:53:23.353Z,99280.66
2023-10-30T23:55:51.530Z,99297.41
2023-10-30T23:58:21.217Z,99309.41
